Terminal Aerodrome Forecast
Issued by NWS

Current Version | Previous Version | Text Only | Print | Product List | Glossary On
Versions: 1 2 3 4 5 6 7 8 9 10 11 12 13
000
FTUS42 TJSJ 241700
TAFJSJ
TAF
TJSJ 241735Z 2418/2518 06019G27KT P6SM FEW030
     FM242230 09011KT P6SM VCSH SCT030
     FM251300 07015G23KT P6SM FEW030=

USA.gov is the U.S. government's official web portal to all federal, state and local government web resources and services.